createdAt,value
2023-05-13T00:01:27.542Z,13.40
2023-05-13T00:03:54.256Z,13.30
2023-05-13T00:06:21.611Z,13.30
2023-05-13T00:08:48.370Z,13.40
2023-05-13T00:11:15.039Z,13.40
2023-05-13T00:13:41.693Z,13.40
2023-05-13T00:16:08.416Z,13.40
2023-05-13T00:18:35.431Z,13.30
2023-05-13T00:21:02.079Z,13.20
2023-05-13T00:23:28.755Z,13.10
2023-05-13T00:25:55.586Z,13.00
2023-05-13T00:28:22.306Z,13.00
2023-05-13T00:30:49.213Z,13.00
2023-05-13T00:33:16.123Z,12.90
2023-05-13T00:35:42.962Z,12.80
2023-05-13T00:38:09.949Z,12.70
2023-05-13T00:40:39.801Z,12.70
2023-05-13T00:43:06.459Z,12.60
2023-05-13T00:45:33.218Z,12.50
2023-05-13T00:48:00.827Z,12.50
2023-05-13T00:50:27.503Z,12.50
2023-05-13T00:52:57.121Z,12.50
2023-05-13T00:55:23.901Z,12.40
2023-05-13T00:57:50.584Z,12.40
2023-05-13T01:00:17.697Z,12.20
2023-05-13T01:03:06.073Z,12.10
2023-05-13T01:05:54.437Z,12.00
2023-05-13T01:08:36.841Z,12.10
2023-05-13T01:11:15.989Z,12.00
2023-05-13T01:13:47.012Z,12.00
2023-05-13T01:16:20.915Z,11.90
2023-05-13T01:18:56.724Z,11.90
2023-05-13T01:21:27.635Z,11.70
2023-05-13T01:23:55.492Z,11.50
2023-05-13T01:26:24.235Z,11.30
2023-05-13T01:28:51.088Z,11.20
2023-05-13T01:31:20.289Z,11.20
2023-05-13T01:33:47.570Z,11.20
2023-05-13T01:36:14.395Z,11.30
2023-05-13T01:38:41.950Z,11.40
2023-05-13T01:41:08.677Z,11.40
2023-05-13T01:43:35.376Z,11.40
2023-05-13T01:46:02.366Z,11.20
2023-05-13T01:48:29.042Z,11.30
2023-05-13T01:50:56.311Z,11.20
2023-05-13T01:53:23.273Z,11.20
2023-05-13T01:55:50.531Z,11.10
2023-05-13T01:58:17.171Z,11.00
2023-05-13T02:00:43.831Z,10.90
2023-05-13T02:03:10.662Z,10.90
2023-05-13T02:05:37.458Z,10.70
2023-05-13T02:08:04.439Z,10.70
2023-05-13T02:10:31.173Z,10.60
2023-05-13T02:12:57.817Z,10.60
2023-05-13T02:15:24.626Z,10.60
2023-05-13T02:17:51.485Z,10.60
2023-05-13T02:20:18.276Z,10.60
2023-05-13T02:22:44.955Z,10.60
2023-05-13T02:25:11.659Z,10.60
2023-05-13T02:27:38.390Z,10.60
2023-05-13T02:30:06.453Z,10.60
2023-05-13T02:32:33.174Z,10.60
2023-05-13T02:34:59.832Z,10.60
2023-05-13T02:37:26.766Z,10.60
2023-05-13T02:39:53.491Z,10.60
2023-05-13T02:42:21.058Z,10.50
2023-05-13T02:44:48.502Z,10.50
2023-05-13T02:47:15.352Z,10.50
2023-05-13T02:49:42.092Z,10.50
2023-05-13T02:52:08.761Z,10.50
2023-05-13T02:54:35.502Z,10.50
2023-05-13T02:57:02.150Z,10.50
2023-05-13T02:59:28.905Z,10.50
2023-05-13T03:01:55.581Z,10.50
2023-05-13T03:04:22.250Z,10.50
2023-05-13T03:06:49.088Z,10.60
2023-05-13T03:09:15.885Z,10.70
2023-05-13T03:11:42.547Z,10.80
2023-05-13T03:14:09.184Z,10.90
2023-05-13T03:16:35.954Z,11.10
2023-05-13T03:19:02.762Z,11.20
2023-05-13T03:21:29.409Z,11.30
2023-05-13T03:23:56.050Z,11.40
2023-05-13T03:26:22.719Z,11.50
2023-05-13T03:28:49.432Z,11.60
2023-05-13T03:31:16.230Z,11.50
2023-05-13T03:33:43.299Z,11.50
2023-05-13T03:36:09.979Z,11.50
2023-05-13T03:38:36.650Z,11.60
2023-05-13T03:41:03.336Z,11.60
2023-05-13T03:43:30.007Z,11.70
2023-05-13T03:45:56.650Z,11.90
2023-05-13T03:48:23.301Z,11.90
2023-05-13T03:50:50.045Z,12.00
2023-05-13T03:53:17.358Z,12.10
2023-05-13T03:55:44.007Z,12.10
2023-05-13T03:58:14.921Z,12.20
2023-05-13T04:00:43.121Z,12.30
2023-05-13T04:03:10.544Z,12.30
2023-05-13T04:05:37.378Z,12.30
2023-05-13T04:08:04.270Z,12.40
2023-05-13T04:10:30.991Z,12.60
2023-05-13T04:12:57.699Z,12.80
2023-05-13T04:15:24.440Z,12.70
2023-05-13T04:17:52.500Z,12.80
2023-05-13T04:20:19.734Z,12.90
2023-05-13T04:22:48.548Z,13.10
2023-05-13T04:25:15.465Z,13.20
2023-05-13T04:27:42.272Z,13.20
2023-05-13T04:30:09.599Z,13.30
2023-05-13T04:32:36.431Z,13.50
2023-05-13T04:35:03.158Z,14.80
2023-05-13T04:37:29.937Z,14.40
2023-05-13T04:39:56.595Z,14.30
2023-05-13T04:42:23.321Z,14.40
2023-05-13T04:44:50.051Z,14.40
2023-05-13T04:47:16.731Z,14.40
2023-05-13T04:49:43.397Z,14.50
2023-05-13T04:52:12.954Z,14.50
2023-05-13T04:54:39.966Z,14.60
2023-05-13T04:57:06.926Z,16.90
2023-05-13T04:59:34.089Z,20.80
2023-05-13T05:02:00.999Z,23.80
2023-05-13T05:04:27.896Z,26.70
2023-05-13T05:06:54.593Z,28.30
2023-05-13T05:09:21.260Z,30.50
2023-05-13T05:11:50.285Z,32.20
2023-05-13T05:14:17.525Z,32.30
2023-05-13T05:16:44.310Z,31.80
2023-05-13T05:19:11.009Z,32.20
2023-05-13T05:21:38.161Z,32.50
2023-05-13T05:24:06.045Z,32.00
2023-05-13T05:26:32.764Z,34.20
2023-05-13T05:28:59.424Z,34.00
2023-05-13T05:31:27.635Z,33.60
2023-05-13T05:33:56.283Z,34.70
2023-05-13T05:36:23.032Z,34.40
2023-05-13T05:38:49.703Z,34.70
2023-05-13T05:41:16.531Z,34.40
2023-05-13T05:43:43.204Z,33.90
2023-05-13T05:46:09.931Z,33.70
2023-05-13T05:48:36.753Z,34.30
2023-05-13T05:51:03.647Z,34.10
2023-05-13T05:53:30.365Z,36.20
2023-05-13T05:55:57.041Z,36.80
2023-05-13T05:58:23.826Z,37.30
2023-05-13T06:00:50.684Z,39.20
2023-05-13T06:03:17.663Z,38.50
2023-05-13T06:05:44.962Z,38.40
2023-05-13T06:08:11.634Z,39.10
2023-05-13T06:10:38.629Z,38.10
2023-05-13T06:13:05.531Z,39.50
2023-05-13T06:15:32.262Z,39.70
2023-05-13T06:17:59.011Z,35.00
2023-05-13T06:20:25.767Z,31.40
2023-05-13T06:22:52.406Z,28.40
2023-05-13T06:25:19.174Z,28.90
2023-05-13T06:27:45.933Z,28.90
2023-05-13T06:30:12.809Z,28.50
2023-05-13T06:32:42.842Z,27.80
2023-05-13T06:35:14.373Z,28.00
2023-05-13T06:37:41.072Z,30.20
2023-05-13T06:40:08.364Z,32.40
2023-05-13T06:42:40.018Z,35.10
2023-05-13T06:45:08.352Z,34.00
2023-05-13T06:47:35.784Z,31.40
2023-05-13T06:50:03.543Z,30.30
2023-05-13T06:52:31.508Z,31.00
2023-05-13T06:54:59.866Z,33.40
2023-05-13T06:57:38.760Z,35.20
2023-05-13T07:00:09.229Z,36.50
2023-05-13T07:02:35.938Z,37.20
2023-05-13T07:05:03.117Z,35.70
2023-05-13T07:07:29.852Z,35.60
2023-05-13T07:09:57.027Z,37.30
2023-05-13T07:12:23.865Z,35.10
2023-05-13T07:14:50.839Z,33.00
2023-05-13T07:17:18.009Z,32.10
2023-05-13T07:19:44.793Z,35.20
2023-05-13T07:22:11.512Z,36.70
2023-05-13T07:24:39.047Z,37.60
2023-05-13T07:27:05.875Z,34.30
2023-05-13T07:29:34.065Z,32.20
2023-05-13T07:32:07.149Z,29.10
2023-05-13T07:34:33.819Z,28.20
2023-05-13T07:37:00.566Z,28.80
2023-05-13T07:39:27.795Z,28.00
2023-05-13T07:41:54.977Z,30.30
2023-05-13T07:44:22.084Z,32.20
2023-05-13T07:46:49.414Z,32.40
2023-05-13T07:49:16.306Z,32.80
2023-05-13T07:51:42.997Z,33.20
2023-05-13T07:54:10.265Z,34.40
2023-05-13T07:56:38.124Z,35.90
2023-05-13T07:59:05.113Z,35.10
2023-05-13T08:01:31.931Z,33.90
2023-05-13T08:03:58.902Z,33.30
2023-05-13T08:06:25.992Z,33.30
2023-05-13T08:08:52.659Z,34.20
2023-05-13T08:11:19.404Z,34.70
2023-05-13T08:13:46.058Z,33.70
2023-05-13T08:16:12.806Z,32.90
2023-05-13T08:18:39.643Z,33.30
2023-05-13T08:21:06.508Z,30.30
2023-05-13T08:23:44.206Z,30.90
2023-05-13T08:26:12.407Z,32.10
2023-05-13T08:28:39.172Z,31.50
2023-05-13T08:31:05.922Z,32.70
2023-05-13T08:33:33.120Z,35.40
2023-05-13T08:36:00.816Z,34.10
2023-05-13T08:38:27.757Z,31.20
2023-05-13T08:40:54.801Z,32.20
2023-05-13T08:43:24.064Z,30.40
2023-05-13T08:45:53.281Z,28.80
2023-05-13T08:48:20.314Z,29.80
2023-05-13T08:50:47.781Z,30.10
2023-05-13T08:53:17.111Z,31.00
2023-05-13T08:55:43.829Z,29.80
2023-05-13T08:58:10.607Z,30.90
2023-05-13T09:00:37.759Z,30.00
2023-05-13T09:03:04.702Z,31.40
2023-05-13T09:05:32.048Z,30.80
2023-05-13T09:08:00.458Z,28.30
2023-05-13T09:10:27.878Z,28.90
2023-05-13T09:12:55.566Z,29.20
2023-05-13T09:15:26.792Z,28.00
2023-05-13T09:17:59.874Z,27.80
2023-05-13T09:20:27.128Z,27.20
2023-05-13T09:23:00.099Z,27.70
2023-05-13T09:25:28.070Z,26.80
2023-05-13T09:27:59.786Z,25.20
2023-05-13T09:30:28.184Z,24.60
2023-05-13T09:33:20.199Z,24.20
2023-05-13T09:35:53.864Z,24.10
2023-05-13T09:38:22.292Z,24.00
2023-05-13T09:40:57.430Z,24.50
2023-05-13T09:43:26.573Z,24.00
2023-05-13T09:45:57.686Z,23.80
2023-05-13T09:48:29.090Z,23.70
2023-05-13T09:50:58.140Z,23.30
2023-05-13T09:53:26.451Z,24.00
2023-05-13T09:55:55.709Z,23.90
2023-05-13T09:58:24.627Z,24.30
2023-05-13T10:00:52.336Z,24.30
2023-05-13T10:03:19.282Z,24.10
2023-05-13T10:05:46.254Z,24.90
2023-05-13T10:08:14.833Z,25.30
2023-05-13T10:10:45.855Z,25.10
2023-05-13T10:13:18.879Z,24.90
2023-05-13T10:15:55.483Z,24.30
2023-05-13T10:18:23.992Z,23.90
2023-05-13T10:20:53.603Z,23.70
2023-05-13T10:23:22.505Z,23.60
2023-05-13T10:25:50.570Z,24.20
2023-05-13T10:28:17.387Z,23.30
2023-05-13T10:30:45.053Z,23.60
2023-05-13T10:33:12.116Z,23.90
2023-05-13T10:35:43.423Z,24.30
2023-05-13T10:38:16.822Z,24.40
2023-05-13T10:41:05.082Z,25.20
2023-05-13T10:43:34.194Z,25.60
2023-05-13T10:46:04.316Z,25.80
2023-05-13T10:48:48.647Z,24.50
2023-05-13T10:51:17.278Z,23.90
2023-05-13T10:53:52.699Z,23.10
2023-05-13T10:56:28.316Z,23.20
2023-05-13T10:59:02.517Z,23.40
2023-05-13T11:01:43.564Z,24.00
2023-05-13T11:04:17.357Z,24.10
2023-05-13T11:06:48.662Z,23.90
2023-05-13T11:09:29.842Z,24.50
2023-05-13T11:12:00.526Z,24.00
2023-05-13T11:14:27.685Z,24.00
2023-05-13T11:17:00.547Z,23.90
2023-05-13T11:19:37.380Z,24.30
2023-05-13T11:22:21.937Z,23.70
2023-05-13T11:25:17.682Z,23.10
2023-05-13T11:27:44.486Z,23.60
2023-05-13T11:30:26.363Z,23.80
2023-05-13T11:33:00.287Z,24.40
2023-05-13T11:35:31.789Z,24.80
2023-05-13T11:38:03.205Z,25.00
2023-05-13T11:40:32.897Z,24.90
2023-05-13T11:43:00.336Z,24.50
2023-05-13T11:45:28.126Z,24.50
2023-05-13T11:47:56.059Z,24.30
2023-05-13T11:50:30.415Z,23.90
2023-05-13T11:52:59.174Z,24.00
2023-05-13T11:55:31.139Z,24.00
2023-05-13T11:57:59.489Z,23.80
2023-05-13T12:00:29.758Z,24.30
2023-05-13T12:02:57.367Z,25.10
2023-05-13T12:05:25.316Z,25.60
2023-05-13T12:07:56.109Z,26.30
2023-05-13T12:10:23.687Z,26.60
2023-05-13T12:12:51.730Z,26.70
2023-05-13T12:15:20.085Z,26.10
2023-05-13T12:17:48.448Z,25.40
2023-05-13T12:20:19.496Z,25.30
2023-05-13T12:22:46.137Z,24.80
2023-05-13T12:25:43.827Z,24.80
2023-05-13T12:28:18.994Z,24.20
2023-05-13T12:31:05.763Z,23.80
2023-05-13T12:33:40.566Z,23.70
2023-05-13T12:36:20.251Z,23.90
2023-05-13T12:39:07.042Z,23.50
2023-05-13T12:41:38.554Z,23.30
2023-05-13T12:44:10.133Z,23.20
2023-05-13T12:46:37.582Z,23.20
2023-05-13T12:49:06.026Z,23.30
2023-05-13T12:51:34.002Z,23.30
2023-05-13T12:54:00.871Z,23.40
2023-05-13T12:56:27.742Z,23.50
2023-05-13T12:58:54.810Z,23.80
2023-05-13T13:01:21.956Z,24.20
2023-05-13T13:03:49.028Z,24.60
2023-05-13T13:06:16.191Z,24.80
2023-05-13T13:08:43.098Z,24.60
2023-05-13T13:11:10.480Z,24.50
2023-05-13T13:13:39.102Z,24.60
2023-05-13T13:16:06.665Z,24.60
2023-05-13T13:18:33.456Z,24.50
2023-05-13T13:21:00.132Z,24.30
2023-05-13T13:23:26.849Z,23.60
2023-05-13T13:25:53.736Z,23.70
2023-05-13T13:28:20.380Z,24.10
2023-05-13T13:30:47.417Z,24.30
2023-05-13T13:33:15.642Z,24.60
2023-05-13T13:35:46.996Z,24.50
2023-05-13T13:38:14.273Z,24.40
2023-05-13T13:40:41.243Z,24.90
2023-05-13T13:43:08.748Z,24.80
2023-05-13T13:45:36.248Z,24.10
2023-05-13T13:48:03.090Z,23.30
2023-05-13T13:50:29.884Z,23.30
2023-05-13T13:52:56.630Z,23.40
2023-05-13T13:55:24.132Z,23.30
2023-05-13T13:57:51.884Z,23.10
2023-05-13T14:00:19.202Z,22.90
2023-05-13T14:02:46.256Z,22.50
2023-05-13T14:05:13.473Z,22.50
2023-05-13T14:07:40.570Z,22.30
2023-05-13T14:10:08.222Z,22.40
2023-05-13T14:12:38.006Z,22.40
2023-05-13T14:15:05.386Z,22.20
2023-05-13T14:17:32.951Z,22.10
2023-05-13T14:19:59.654Z,21.90
2023-05-13T14:22:26.349Z,21.80
2023-05-13T14:24:53.194Z,21.90
2023-05-13T14:27:20.895Z,21.80
2023-05-13T14:29:48.574Z,21.90
2023-05-13T14:32:15.661Z,21.70
2023-05-13T14:34:42.753Z,21.80
2023-05-13T14:37:09.442Z,21.80
2023-05-13T14:39:36.283Z,21.70
2023-05-13T14:42:04.450Z,21.80
2023-05-13T14:44:32.101Z,21.80
2023-05-13T14:46:59.082Z,21.70
2023-05-13T14:49:25.771Z,21.60
2023-05-13T14:51:52.639Z,21.40
2023-05-13T14:54:19.345Z,21.40
2023-05-13T14:56:46.253Z,21.50
2023-05-13T14:59:13.149Z,21.60
2023-05-13T15:01:39.920Z,21.60
2023-05-13T15:04:06.614Z,21.60
2023-05-13T15:06:33.920Z,21.80
2023-05-13T15:09:00.687Z,21.90
2023-05-13T15:11:30.624Z,22.20
2023-05-13T15:13:57.309Z,22.30
2023-05-13T15:16:24.031Z,22.40
2023-05-13T15:18:50.841Z,22.50
2023-05-13T15:21:18.048Z,22.60
2023-05-13T15:23:44.809Z,22.80
2023-05-13T15:26:11.611Z,23.10
2023-05-13T15:28:38.289Z,23.20
2023-05-13T15:31:06.302Z,23.20
2023-05-13T15:33:33.453Z,23.20
2023-05-13T15:36:01.093Z,23.30
2023-05-13T15:38:28.153Z,23.70
2023-05-13T15:40:54.870Z,23.80
2023-05-13T15:43:21.574Z,24.00
2023-05-13T15:45:50.054Z,24.20
2023-05-13T15:48:17.665Z,23.90
2023-05-13T15:50:44.614Z,23.70
2023-05-13T15:53:11.524Z,23.40
2023-05-13T15:55:39.487Z,23.40
2023-05-13T15:58:06.940Z,23.10
2023-05-13T16:00:33.925Z,22.90
2023-05-13T16:03:00.749Z,22.90
2023-05-13T16:05:27.427Z,23.00
2023-05-13T16:07:54.936Z,22.80
2023-05-13T16:10:21.934Z,22.60
2023-05-13T16:12:48.906Z,22.20
2023-05-13T16:15:15.700Z,22.40
2023-05-13T16:17:42.365Z,22.40
2023-05-13T16:20:11.534Z,22.30
2023-05-13T16:22:39.138Z,22.10
2023-05-13T16:25:08.137Z,21.90
2023-05-13T16:27:36.175Z,21.90
2023-05-13T16:30:04.299Z,21.80
2023-05-13T16:32:31.075Z,21.70
2023-05-13T16:34:58.121Z,21.60
2023-05-13T16:37:24.903Z,21.60
2023-05-13T16:39:51.563Z,21.40
2023-05-13T16:42:19.673Z,21.40
2023-05-13T16:44:47.302Z,21.30
2023-05-13T16:47:14.405Z,21.30
2023-05-13T16:49:41.073Z,21.20
2023-05-13T16:52:07.836Z,21.10
2023-05-13T16:54:34.591Z,21.00
2023-05-13T16:57:01.326Z,21.00
2023-05-13T16:59:28.417Z,20.80
2023-05-13T17:01:55.147Z,20.80
2023-05-13T17:04:21.816Z,20.70
2023-05-13T17:06:48.543Z,20.60
2023-05-13T17:09:16.106Z,20.60
2023-05-13T17:11:42.828Z,20.50
2023-05-13T17:14:09.710Z,20.30
2023-05-13T17:16:36.490Z,20.20
2023-05-13T17:19:03.386Z,20.10
2023-05-13T17:21:30.229Z,20.00
2023-05-13T17:23:56.899Z,20.00
2023-05-13T17:26:23.592Z,19.90
2023-05-13T17:28:50.310Z,19.80
2023-05-13T17:31:17.050Z,19.70
2023-05-13T17:33:43.812Z,19.70
2023-05-13T17:36:11.038Z,19.70
2023-05-13T17:38:38.310Z,19.50
2023-05-13T17:41:05.225Z,19.40
2023-05-13T17:43:31.966Z,19.30
2023-05-13T17:45:58.905Z,19.30
2023-05-13T17:48:26.843Z,19.30
2023-05-13T17:50:53.922Z,19.20
2023-05-13T17:53:21.359Z,19.10
2023-05-13T17:55:48.704Z,19.00
2023-05-13T17:58:16.386Z,18.90
2023-05-13T18:00:43.291Z,18.80
2023-05-13T18:03:10.149Z,18.60
2023-05-13T18:05:37.121Z,18.50
2023-05-13T18:08:03.922Z,18.50
2023-05-13T18:10:30.655Z,18.40
2023-05-13T18:12:57.394Z,18.40
2023-05-13T18:15:24.100Z,18.30
2023-05-13T18:17:51.117Z,18.30
2023-05-13T18:20:18.626Z,18.30
2023-05-13T18:22:45.530Z,18.30
2023-05-13T18:25:12.224Z,18.20
2023-05-13T18:27:38.928Z,18.20
2023-05-13T18:30:07.004Z,18.10
2023-05-13T18:32:33.766Z,18.10
2023-05-13T18:35:00.686Z,18.00
2023-05-13T18:37:27.401Z,17.90
2023-05-13T18:39:54.077Z,17.80
2023-05-13T18:42:21.315Z,17.80
2023-05-13T18:44:47.976Z,17.70
2023-05-13T18:47:14.658Z,17.60
2023-05-13T18:49:41.405Z,17.50
2023-05-13T18:52:08.119Z,17.60
2023-05-13T18:54:35.403Z,17.60
2023-05-13T18:57:02.177Z,17.50
2023-05-13T18:59:29.027Z,17.40
2023-05-13T19:01:56.117Z,17.30
2023-05-13T19:04:23.256Z,17.20
2023-05-13T19:06:50.433Z,17.20
2023-05-13T19:09:17.103Z,17.10
2023-05-13T19:11:44.260Z,17.00
2023-05-13T19:14:10.926Z,16.90
2023-05-13T19:16:37.731Z,16.90
2023-05-13T19:19:04.965Z,16.90
2023-05-13T19:21:31.671Z,16.80
2023-05-13T19:23:58.661Z,16.80
2023-05-13T19:26:25.588Z,16.70
2023-05-13T19:28:52.482Z,16.70
2023-05-13T19:31:19.155Z,16.70
2023-05-13T19:33:46.477Z,16.60
2023-05-13T19:36:13.368Z,16.60
2023-05-13T19:38:40.079Z,16.60
2023-05-13T19:41:06.789Z,16.60
2023-05-13T19:43:33.475Z,16.60
2023-05-13T19:46:00.343Z,16.60
2023-05-13T19:48:29.639Z,16.60
2023-05-13T19:50:57.880Z,16.50
2023-05-13T19:53:24.709Z,16.60
2023-05-13T19:55:51.465Z,16.60
2023-05-13T19:58:18.284Z,16.60
2023-05-13T20:00:45.212Z,16.60
2023-05-13T20:03:12.150Z,16.50
2023-05-13T20:05:41.133Z,16.60
2023-05-13T20:08:07.862Z,16.50
2023-05-13T20:10:36.659Z,16.50
2023-05-13T20:13:04.725Z,16.50
2023-05-13T20:15:32.168Z,16.50
2023-05-13T20:17:59.105Z,16.50
2023-05-13T20:20:25.901Z,16.50
2023-05-13T20:22:52.674Z,16.50
2023-05-13T20:25:19.530Z,16.60
2023-05-13T20:27:46.200Z,16.60
2023-05-13T20:30:13.657Z,16.60
2023-05-13T20:32:40.452Z,16.70
2023-05-13T20:35:08.641Z,16.80
2023-05-13T20:37:35.554Z,16.80
2023-05-13T20:40:02.466Z,16.90
2023-05-13T20:42:29.161Z,17.00
2023-05-13T20:44:56.127Z,17.00
2023-05-13T20:47:22.843Z,16.90
2023-05-13T20:49:49.579Z,16.80
2023-05-13T20:52:16.686Z,16.80
2023-05-13T20:54:43.565Z,16.70
2023-05-13T20:57:10.241Z,16.70
2023-05-13T20:59:37.358Z,16.70
2023-05-13T21:02:04.258Z,16.60
2023-05-13T21:04:31.044Z,16.70
2023-05-13T21:06:57.726Z,16.60
2023-05-13T21:09:24.444Z,16.70
2023-05-13T21:11:51.093Z,16.70
2023-05-13T21:14:17.750Z,16.70
2023-05-13T21:16:44.511Z,16.70
2023-05-13T21:19:20.484Z,16.60
2023-05-13T21:21:47.262Z,16.60
2023-05-13T21:24:18.606Z,16.60
2023-05-13T21:26:49.209Z,16.50
2023-05-13T21:29:17.377Z,16.50
2023-05-13T21:31:46.088Z,16.50
2023-05-13T21:34:13.063Z,16.50
2023-05-13T21:36:39.774Z,16.50
2023-05-13T21:39:07.698Z,16.50
2023-05-13T21:41:34.430Z,16.40
2023-05-13T21:44:01.074Z,16.40
2023-05-13T21:46:27.827Z,16.60
2023-05-13T21:48:54.637Z,17.00
2023-05-13T21:51:21.889Z,17.20
2023-05-13T21:53:48.586Z,17.20
2023-05-13T21:56:15.424Z,17.60
2023-05-13T21:58:42.131Z,17.60
2023-05-13T22:01:08.831Z,17.40
2023-05-13T22:03:35.628Z,17.20
2023-05-13T22:06:02.539Z,17.10
2023-05-13T22:08:30.119Z,17.00
2023-05-13T22:10:56.927Z,16.90
2023-05-13T22:13:25.494Z,16.90
2023-05-13T22:15:52.249Z,16.90
2023-05-13T22:18:19.355Z,17.00
2023-05-13T22:20:46.065Z,17.10
2023-05-13T22:23:12.730Z,17.30
2023-05-13T22:25:39.438Z,17.30
2023-05-13T22:28:06.437Z,17.30
2023-05-13T22:30:33.173Z,17.30
2023-05-13T22:32:59.935Z,17.30
2023-05-13T22:35:28.870Z,17.10
2023-05-13T22:37:55.579Z,17.00
2023-05-13T22:40:22.762Z,17.00
2023-05-13T22:42:49.676Z,16.90
2023-05-13T22:45:16.382Z,16.90
2023-05-13T22:47:43.160Z,16.80
2023-05-13T22:50:12.202Z,16.80
2023-05-13T22:52:39.085Z,16.70
2023-05-13T22:55:06.691Z,16.60
2023-05-13T22:57:33.343Z,16.50
2023-05-13T23:00:00.109Z,16.50
2023-05-13T23:02:26.829Z,16.50
2023-05-13T23:04:53.449Z,16.50
2023-05-13T23:07:20.340Z,16.40
2023-05-13T23:09:47.025Z,16.50
2023-05-13T23:12:13.689Z,16.50
2023-05-13T23:14:40.418Z,16.50
2023-05-13T23:17:07.990Z,16.50
2023-05-13T23:19:34.723Z,16.50
2023-05-13T23:22:07.262Z,16.50
2023-05-13T23:24:33.988Z,16.50
2023-05-13T23:27:00.645Z,16.50
2023-05-13T23:29:27.730Z,16.40
2023-05-13T23:31:55.284Z,16.40
2023-05-13T23:34:22.081Z,16.40
2023-05-13T23:36:48.754Z,16.40
2023-05-13T23:39:15.452Z,16.40
2023-05-13T23:41:42.405Z,16.40
2023-05-13T23:44:09.108Z,16.30
2023-05-13T23:46:35.791Z,16.30
2023-05-13T23:49:02.653Z,16.30
2023-05-13T23:51:29.542Z,16.30
2023-05-13T23:53:56.402Z,16.20
2023-05-13T23:56:23.075Z,16.20
2023-05-13T23:58:49.931Z,16.20
